Time;durP1;ratioP1;P1;durP2;ratioP2;P2;SDS_P1;SDS_P2;PMS_P1;PMS_P2;Temp;Humidity;BMP_temperature;BMP_pressure;BME280_temperature;BME280_humidity;BME280_pressure;Samples;Min_cycle;Max_cycle;Signal;HPM_P1;HPM_P2
2022/05/12 00:02:19;;;;;;;13.50;3.10;;;;;;;;;;4356363;32;19942;-67
2022/05/12 00:04:44;;;;;;;;;;;;;;;;;;4348534;32;20062;-69
2022/05/12 00:07:09;;;;;;;15.73;3.22;;;;;;;;;;4344242;33;19940;-67
2022/05/12 00:09:34;;;;;;;;;;;;;;;;;;4333657;33;20028;-68
2022/05/12 00:11:59;;;;;;;14.27;3.08;;;;;;;;;;4334242;33;19943;-68
2022/05/12 00:14:25;;;;;;;;;;;;;;;;;;4334194;33;20028;-67
2022/05/12 00:16:50;;;;;;;15.32;4.35;;;;;;;;;;4341521;33;19944;-68
2022/05/12 00:19:15;;;;;;;18.50;3.15;;;;;;;;;;4337595;33;20079;-68
2022/05/12 00:21:40;;;;;;;;;;;;;;;;;;4336400;32;20039;-67
2022/05/12 00:24:06;;;;;;;17.62;3.62;;;;;;;;;;4350289;32;19935;-68
2022/05/12 00:26:31;;;;;;;;;;;;;;;;;;4342516;32;20036;-67
2022/05/12 00:29:00;;;;;;;12.95;3.10;;;;;;;;;;4337889;33;20339;-69
2022/05/12 00:31:26;;;;;;;15.13;3.92;;;;;;;;;;4344397;32;20023;-68
2022/05/12 00:33:51;;;;;;;14.30;3.90;;;;;;;;;;4345775;33;20087;-68
2022/05/12 00:36:16;;;;;;;;;;;;;;;;;;4347349;32;20050;-68
2022/05/12 00:38:41;;;;;;;23.55;4.07;;;;;;;;;;4366233;27;19949;-72
2022/05/12 00:41:06;;;;;;;;;;;;;;;;;;4364009;32;20123;-74
2022/05/12 00:43:35;;;;;;;10.43;3.10;;;;;;;;;;4373696;32;20000;-72
2022/05/12 00:46:00;;;;;;;16.92;3.33;;;;;;;;;;4362159;32;20533;-76
2022/05/12 00:48:26;;;;;;;16.35;4.43;;;;;;;;;;4362305;32;20379;-73
2022/05/12 00:50:51;;;;;;;;;;;;;;;;;;4369303;32;20510;-69
2022/05/12 00:53:16;;;;;;;13.05;3.30;;;;;;;;;;4368529;32;20305;-70
2022/05/12 00:55:41;;;;;;;;;;;;;;;;;;4375676;32;20066;-75
2022/05/12 00:58:07;;;;;;;9.68;3.85;;;;;;;;;;4374602;32;19988;-71
2022/05/12 01:00:32;;;;;;;9.90;3.40;;;;;;;;;;4361201;32;20062;-74
2022/05/12 01:03:00;;;;;;;16.70;3.60;;;;;;;;;;4374132;32;20405;-73
2022/05/12 01:05:26;;;;;;;13.70;3.97;;;;;;;;;;4375868;32;20061;-74
2022/05/12 01:07:55;;;;;;;8.65;3.80;;;;;;;;;;4375041;32;20059;-73
2022/05/12 01:10:20;;;;;;;12.77;4.10;;;;;;;;;;4375705;32;20061;-74
2022/05/12 01:12:48;;;;;;;10.38;3.70;;;;;;;;;;4363876;32;20414;-71
2022/05/12 01:15:14;;;;;;;10.48;3.90;;;;;;;;;;4362150;32;20039;-70
2022/05/12 01:17:39;;;;;;;14.93;4.28;;;;;;;;;;4361882;32;20023;-69
2022/05/12 01:20:04;;;;;;;11.43;4.78;;;;;;;;;;4363045;32;20088;-69
2022/05/12 01:22:30;;;;;;;;;;;;;;;;;;4375074;32;20030;-71
2022/05/12 01:24:55;;;;;;;12.48;4.65;;;;;;;;;;4360294;32;19972;-68
2022/05/12 01:27:20;;;;;;;;;;;;;;;;;;4365344;32;20054;-69
2022/05/12 01:29:47;;;;;;;9.23;3.72;;;;;;;;;;4372591;32;19995;-68
2022/05/12 01:32:12;;;;;;;9.55;4.10;;;;;;;;;;4374648;32;20170;-69
2022/05/12 01:34:37;;;;;;;8.48;3.87;;;;;;;;;;4362028;32;20429;-70
2022/05/12 01:37:02;;;;;;;;;;;;;;;;;;4362114;32;20194;-70
2022/05/12 01:39:27;;;;;;;17.10;4.10;;;;;;;;;;4360243;32;19939;-70
2022/05/12 01:41:52;;;;;;;;;;;;;;;;;;4360215;33;20032;-69
2022/05/12 01:44:18;;;;;;;7.22;3.17;;;;;;;;;;4360197;32;19972;-70
2022/05/12 01:46:43;;;;;;;;;;;;;;;;;;4361775;32;20028;-68
2022/05/12 01:49:08;;;;;;;9.93;3.35;;;;;;;;;;4360982;33;19989;-71
2022/05/12 01:51:35;;;;;;;;;;;;;;;;;;4360612;33;20049;-68
2022/05/12 01:54:00;;;;;;;11.20;3.75;;;;;;;;;;4360038;33;20265;-68
2022/05/12 01:56:25;;;;;;;;;;;;;;;;;;4361400;33;20050;-70
2022/05/12 01:58:50;;;;;;;9.70;4.05;;;;;;;;;;4361281;33;19938;-68
2022/05/12 02:01:15;;;;;;;;;;;;;;;;;;4361411;33;20032;-71
2022/05/12 02:03:41;;;;;;;10.73;3.47;;;;;;;;;;4361742;33;19990;-68
2022/05/12 02:06:06;;;;;;;;;;;;;;;;;;4361884;33;20039;-69
2022/05/12 02:08:31;;;;;;;10.15;4.05;;;;;;;;;;4360954;33;19939;-67
2022/05/12 02:10:56;;;;;;;;;;;;;;;;;;4359940;33;20031;-68
2022/05/12 02:13:25;;;;;;;9.25;4.05;;;;;;;;;;4359489;33;19935;-70
2022/05/12 02:15:50;;;;;;;11.07;5.40;;;;;;;;;;4359734;33;20075;-69
2022/05/12 02:18:18;;;;;;;9.13;4.60;;;;;;;;;;4363535;33;20475;-69
2022/05/12 02:20:43;;;;;;;12.90;4.95;;;;;;;;;;4367770;33;20078;-68
2022/05/12 02:23:08;;;;;;;9.40;4.53;;;;;;;;;;4359707;33;20023;-68
2022/05/12 02:25:33;;;;;;;;;;;;;;;;;;4360707;33;20027;-69
2022/05/12 02:27:58;;;;;;;12.73;6.53;;;;;;;;;;4360061;33;19935;-69
2022/05/12 02:30:24;;;;;;;;;;;;;;;;;;4361732;33;20039;-68
2022/05/12 02:32:49;;;;;;;14.30;6.65;;;;;;;;;;4361805;32;19972;-70
2022/05/12 02:35:14;;;;;;;10.52;5.80;;;;;;;;;;4364136;32;20315;-68
2022/05/12 02:37:39;;;;;;;;;;;;;;;;;;4363123;33;20023;-68
2022/05/12 02:40:05;;;;;;;11.77;6.57;;;;;;;;;;4362178;32;19998;-69
2022/05/12 02:42:31;;;;;;;19.58;8.13;;;;;;;;;;4363816;32;20030;-68
2022/05/12 02:44:56;;;;;;;;;;;;;;;;;;4364050;32;20019;-69
2022/05/12 02:47:21;;;;;;;14.43;6.62;;;;;;;;;;4363129;32;19946;-69
2022/05/12 02:49:46;;;;;;;;;;;;;;;;;;4362778;32;20069;-68
2022/05/12 02:52:11;;;;;;;11.52;6.35;;;;;;;;;;4363941;32;19949;-70
2022/05/12 02:54:36;;;;;;;;;;;;;;;;;;4360436;33;20027;-68
2022/05/12 02:57:02;;;;;;;15.73;6.95;;;;;;;;;;4361760;32;19985;-69
2022/05/12 02:59:27;;;;;;;;;;;;;;;;;;4362488;33;20583;-68
2022/05/12 03:01:52;;;;;;;13.25;6.72;;;;;;;;;;4362748;32;20348;-69
2022/05/12 03:04:17;;;;;;;;;;;;;;;;;;4362138;33;20023;-70
2022/05/12 03:06:43;;;;;;;13.30;8.30;;;;;;;;;;4363530;32;19996;-69
2022/05/12 03:09:08;;;;;;;;;;;;;;;;;;4361560;32;20475;-69
2022/05/12 03:11:33;;;;;;;15.85;7.53;;;;;;;;;;4361762;33;20365;-68
2022/05/12 03:13:59;;;;;;;;;;;;;;;;;;4363698;32;20047;-69
2022/05/12 03:16:24;;;;;;;15.70;7.85;;;;;;;;;;4361757;32;19934;-68
2022/05/12 03:18:51;;;;;;;;;;;;;;;;;;4363335;32;20043;-68
2022/05/12 03:21:16;;;;;;;15.57;8.27;;;;;;;;;;4363520;32;19943;-68
2022/05/12 03:23:41;;;;;;;;;;;;;;;;;;4361798;33;20421;-68
2022/05/12 03:26:07;;;;;;;16.12;8.13;;;;;;;;;;4362658;32;20335;-68
2022/05/12 03:28:32;;;;;;;;;;;;;;;;;;4347749;33;20040;-69
2022/05/12 03:30:58;;;;;;;20.58;8.30;;;;;;;;;;4360751;32;19986;-70
2022/05/12 03:33:23;;;;;;;;;;;;;;;;;;4361675;32;20093;-68
2022/05/12 03:35:49;;;;;;;14.45;8.23;;;;;;;;;;4363677;32;19949;-69
2022/05/12 03:38:14;;;;;;;18.37;8.18;;;;;;;;;;4361183;32;20081;-68
2022/05/12 03:40:40;;;;;;;16.52;9.05;;;;;;;;;;4361858;33;20103;-68
2022/05/12 03:43:05;;;;;;;;;;;;;;;;;;4361722;32;20035;-68
2022/05/12 03:45:30;;;;;;;16.73;10.40;;;;;;;;;;4361122;32;19982;-68
2022/05/12 03:47:55;;;;;;;;;;;;;;;;;;4361667;32;20095;-69
2022/05/12 03:50:22;;;;;;;17.33;8.18;;;;;;;;;;4361253;32;19977;-69
2022/05/12 03:52:47;;;;;;;22.73;9.38;;;;;;;;;;4347683;33;20055;-68
2022/05/12 03:55:13;;;;;;;15.02;8.75;;;;;;;;;;4361539;32;20353;-68
2022/05/12 03:57:38;;;;;;;;;;;;;;;;;;4363090;32;20093;-68
2022/05/12 04:00:06;;;;;;;18.20;10.23;;;;;;;;;;4362777;32;20268;-69
2022/05/12 04:02:31;;;;;;;18.98;9.05;;;;;;;;;;4361248;32;20111;-69
2022/05/12 04:04:57;;;;;;;13.85;7.97;;;;;;;;;;4362488;32;20023;-69
2022/05/12 04:07:22;;;;;;;;;;;;;;;;;;4347442;33;20023;-70
2022/05/12 04:09:47;;;;;;;12.43;7.90;;;;;;;;;;4348030;33;19953;-70
2022/05/12 04:12:12;;;;;;;;;;;;;;;;;;4347533;33;20048;-69
2022/05/12 04:14:39;;;;;;;21.25;9.38;;;;;;;;;;4346394;33;19946;-69
2022/05/12 04:17:05;;;;;;;17.50;8.40;;;;;;;;;;4361672;32;20418;-70
2022/05/12 04:19:30;;;;;;;14.25;7.72;;;;;;;;;;4359908;32;20109;-69
2022/05/12 04:21:55;;;;;;;15.27;7.85;;;;;;;;;;4361092;33;20031;-68
2022/05/12 04:24:20;;;;;;;20.17;7.57;;;;;;;;;;4361043;33;20070;-68
2022/05/12 04:26:46;;;;;;;;;;;;;;;;;;4362164;32;20120;-67
2022/05/12 04:29:12;;;;;;;18.60;6.90;;;;;;;;;;4361873;32;20004;-69
2022/05/12 04:31:37;;;;;;;;;;;;;;;;;;4361881;32;20047;-69
2022/05/12 04:36:47;;;;;;;17.95;7.68;;;;;;;;;;4360992;32;20174;-69
2022/05/12 04:39:12;;;;;;;;;;;;;;;;;;4361074;32;20522;-70
2022/05/12 04:41:37;;;;;;;15.98;7.35;;;;;;;;;;4359186;32;19969;-69
2022/05/12 04:44:02;;;;;;;;;;;;;;;;;;4361020;33;20083;-69
2022/05/12 04:46:28;;;;;;;18.83;6.03;;;;;;;;;;4360953;32;19935;-69
2022/05/12 04:48:53;;;;;;;;;;;;;;;;;;4362252;32;20119;-69
2022/05/12 04:51:19;;;;;;;17.87;6.43;;;;;;;;;;4361532;32;20385;-70
2022/05/12 04:53:44;;;;;;;;;;;;;;;;;;4360801;32;20065;-72
2022/05/12 04:56:09;;;;;;;17.58;6.28;;;;;;;;;;4360333;32;19953;-71
2022/05/12 04:58:34;;;;;;;;;;;;;;;;;;4347150;33;20032;-70
2022/05/12 05:00:59;;;;;;;12.73;5.82;;;;;;;;;;4360745;33;20309;-72
2022/05/12 05:03:25;;;;;;;;;;;;;;;;;;4359955;32;20027;-69
2022/05/12 05:05:50;;;;;;;15.25;5.72;;;;;;;;;;4361556;32;19950;-69
2022/05/12 05:08:15;;;;;;;;;;;;;;;;;;4365614;32;20123;-75
2022/05/12 05:10:40;;;;;;;22.00;6.87;;;;;;;;;;4360766;32;19935;-70
2022/05/12 05:13:05;;;;;;;;;;;;;;;;;;4360265;33;20073;-71
2022/05/12 05:15:31;;;;;;;21.98;7.18;;;;;;;;;;4359950;33;19947;-71
2022/05/12 05:17:56;;;;;;;;;;;;;;;;;;4360961;32;20062;-68
2022/05/12 05:20:23;;;;;;;9.55;5.25;;;;;;;;;;4360520;33;20293;-69
2022/05/12 05:22:48;;;;;;;20.35;7.37;;;;;;;;;;4359916;32;20421;-68
2022/05/12 05:25:14;;;;;;;18.35;5.72;;;;;;;;;;4361348;32;20023;-73
2022/05/12 05:27:39;;;;;;;;;;;;;;;;;;4361720;32;20140;-70
2022/05/12 05:30:05;;;;;;;15.77;5.10;;;;;;;;;;4360897;32;19949;-70
2022/05/12 05:32:30;;;;;;;;;;;;;;;;;;4361308;32;20158;-68
2022/05/12 05:34:56;;;;;;;32.55;6.72;;;;;;;;;;4359841;32;19982;-73
2022/05/12 05:37:21;;;;;;;;;;;;;;;;;;4347291;33;20043;-69
2022/05/12 05:39:46;;;;;;;13.82;4.78;;;;;;;;;;4358590;33;20305;-69
2022/05/12 05:42:11;;;;;;;;;;;;;;;;;;4360545;32;20171;-71
2022/05/12 05:44:36;;;;;;;11.73;4.85;;;;;;;;;;4359968;33;19935;-71
2022/05/12 05:47:02;;;;;;;15.38;5.95;;;;;;;;;;4346416;33;20134;-72
2022/05/12 05:49:32;;;;;;;18.25;6.15;;;;;;;;;;4360376;32;20366;-71
2022/05/12 05:54:41;;;;;;;15.43;5.35;;;;;;;;;;4359743;33;20058;-69
2022/05/12 05:57:07;;;;;;;13.62;4.78;;;;;;;;;;4359941;33;20028;-69
2022/05/12 05:59:32;;;;;;;;;;;;;;;;;;4361701;33;20090;-69
2022/05/12 06:01:57;;;;;;;15.55;4.85;;;;;;;;;;4360019;33;19950;-70
2022/05/12 06:04:22;;;;;;;;;;;;;;;;;;4360581;33;20035;-70
2022/05/12 06:06:48;;;;;;;12.00;4.68;;;;;;;;;;4361353;32;19946;-72
2022/05/12 06:09:13;;;;;;;20.17;5.75;;;;;;;;;;4363947;32;20050;-71
2022/05/12 06:11:38;;;;;;;;;;;;;;;;;;4363190;33;20023;-71
2022/05/12 06:14:03;;;;;;;13.52;4.47;;;;;;;;;;4362481;33;19943;-72
2022/05/12 06:16:29;;;;;;;13.57;4.05;;;;;;;;;;4363620;32;20049;-72
2022/05/12 06:18:54;;;;;;;;;;;;;;;;;;4363928;32;20372;-73
2022/05/12 06:21:19;;;;;;;14.18;4.20;;;;;;;;;;4362854;32;19977;-72
2022/05/12 06:23:45;;;;;;;9.35;4.43;;;;;;;;;;4362461;33;20065;-71
2022/05/12 06:26:14;;;;;;;6.37;3.65;;;;;;;;;;4363056;32;20111;-68
2022/05/12 06:28:41;;;;;;;11.30;3.80;;;;;;;;;;4363468;32;20456;-72
2022/05/12 06:31:06;;;;;;;16.08;5.90;;;;;;;;;;4363008;32;20031;-72
2022/05/12 06:33:33;;;;;;;13.10;4.60;;;;;;;;;;4362768;32;20392;-72
2022/05/12 06:35:58;;;;;;;12.48;3.37;;;;;;;;;;4363178;32;20197;-70
2022/05/12 06:38:23;;;;;;;11.80;3.62;;;;;;;;;;4360679;32;20044;-69
2022/05/12 06:40:48;;;;;;;6.47;3.60;;;;;;;;;;4363030;32;20085;-70
2022/05/12 06:43:13;;;;;;;;;;;;;;;;;;4364395;32;20046;-72
2022/05/12 06:45:39;;;;;;;16.75;5.12;;;;;;;;;;4363504;32;19945;-68
2022/05/12 06:48:04;;;;;;;;;;;;;;;;;;4363232;32;20335;-68
2022/05/12 06:50:29;;;;;;;8.87;3.17;;;;;;;;;;4361537;32;19939;-70
2022/05/12 06:52:55;;;;;;;;;;;;;;;;;;4363375;32;20423;-71
2022/05/12 06:55:21;;;;;;;11.75;4.07;;;;;;;;;;4362247;32;19949;-69
2022/05/12 06:57:47;;;;;;;10.38;4.00;;;;;;;;;;4362349;32;20023;-70
2022/05/12 07:00:16;;;;;;;10.95;4.05;;;;;;;;;;4362417;32;20437;-70
2022/05/12 07:02:41;;;;;;;12.02;4.10;;;;;;;;;;4359740;32;20082;-74
2022/05/12 07:05:08;;;;;;;11.30;4.12;;;;;;;;;;4353788;32;20089;-72
2022/05/12 07:07:35;;;;;;;10.40;3.28;;;;;;;;;;4333619;33;20035;-69
2022/05/12 07:10:00;;;;;;;10.43;3.42;;;;;;;;;;4353079;32;20476;-72
2022/05/12 07:12:26;;;;;;;14.48;3.53;;;;;;;;;;4353477;32;20084;-69
2022/05/12 07:14:52;;;;;;;10.45;3.70;;;;;;;;;;4353951;32;20035;-69
2022/05/12 07:17:18;;;;;;;14.50;4.70;;;;;;;;;;4352941;32;20093;-71
2022/05/12 07:19:43;;;;;;;11.05;3.45;;;;;;;;;;4352899;32;20032;-71
2022/05/12 07:26:35;;;;;;;9.43;3.50;;;;;;;;;;4353236;32;20103;-73
2022/05/12 07:27:37;;;;;;;7.20;2.97;;;;;;;;;;4353485;32;20035;-73
2022/05/12 07:30:03;;;;;;;10.50;2.85;;;;;;;;;;4360744;32;20424;-71
2022/05/12 07:32:29;;;;;;;11.80;2.60;;;;;;;;;;4362284;32;20031;-70
2022/05/12 07:34:54;;;;;;;6.97;2.72;;;;;;;;;;4354899;32;20430;-72
2022/05/12 07:37:19;;;;;;;8.35;3.58;;;;;;;;;;4346708;33;20023;-70
2022/05/12 07:39:44;;;;;;;;;;;;;;;;;;4357642;32;20077;-70
2022/05/12 07:42:10;;;;;;;8.52;2.83;;;;;;;;;;4338149;33;19991;-70
2022/05/12 07:44:35;;;;;;;;;;;;;;;;;;4348251;32;20124;-70
2022/05/12 07:47:01;;;;;;;10.50;3.03;;;;;;;;;;4347879;32;19968;-73
2022/05/12 07:49:28;;;;;;;7.28;3.05;;;;;;;;;;4347940;32;20027;-70
2022/05/12 07:51:54;;;;;;;8.38;3.53;;;;;;;;;;4346531;33;20024;-73
2022/05/12 07:54:19;;;;;;;8.70;2.90;;;;;;;;;;4346773;33;20063;-75
2022/05/12 07:56:44;;;;;;;5.47;2.37;;;;;;;;;;4348481;32;20421;-71
2022/05/12 07:59:10;;;;;;;5.78;2.65;;;;;;;;;;4348278;33;20390;-73
2022/05/12 08:01:35;;;;;;;7.40;2.47;;;;;;;;;;4346274;32;20132;-72
2022/05/12 08:04:00;;;;;;;7.30;2.47;;;;;;;;;;4347833;32;20331;-71
2022/05/12 08:06:26;;;;;;;8.10;2.72;;;;;;;;;;4345318;33;20121;-76
2022/05/12 08:08:51;;;;;;;6.20;1.98;;;;;;;;;;4346499;32;20347;-74
2022/05/12 08:11:18;;;;;;;11.70;3.17;;;;;;;;;;4346366;32;20021;-73
2022/05/12 08:13:46;;;;;;;6.82;2.55;;;;;;;;;;4347669;32;20179;-76
2022/05/12 08:16:12;;;;;;;8.25;2.67;;;;;;;;;;4346600;33;20027;-75
2022/05/12 08:18:37;;;;;;;6.45;2.15;;;;;;;;;;4347135;32;20081;-72
2022/05/12 08:21:03;;;;;;;7.25;3.08;;;;;;;;;;4347650;33;20091;-74
2022/05/12 08:23:28;;;;;;;5.80;2.33;;;;;;;;;;4344875;33;20066;-69
2022/05/12 08:25:53;;;;;;;8.82;2.83;;;;;;;;;;4347165;32;20067;-73
2022/05/12 08:28:22;;;;;;;8.30;3.08;;;;;;;;;;4346164;32;20422;-71
2022/05/12 08:30:48;;;;;;;6.12;2.35;;;;;;;;;;4347112;33;20378;-71
2022/05/12 08:33:13;;;;;;;4.78;2.00;;;;;;;;;;4347696;32;20071;-70
2022/05/12 08:35:39;;;;;;;5.47;1.83;;;;;;;;;;4346838;32;20425;-72
2022/05/12 08:38:08;;;;;;;7.82;2.20;;;;;;;;;;4346085;32;20031;-75
2022/05/12 08:40:52;;;;;;;6.82;2.53;;;;;;;;;;4359046;32;20035;-72
2022/05/12 08:43:31;;;;;;;7.57;3.22;;;;;;;;;;4361974;32;20031;-72
2022/05/12 08:46:01;;;;;;;9.68;2.03;;;;;;;;;;4359256;33;20433;-69
2022/05/12 08:48:26;;;;;;;8.60;2.87;;;;;;;;;;4360899;33;20023;-72
2022/05/12 08:50:53;;;;;;;8.43;2.20;;;;;;;;;;4361418;32;20378;-71
2022/05/12 08:53:20;;;;;;;5.43;1.80;;;;;;;;;;4360408;32;20031;-72
2022/05/12 08:55:47;;;;;;;8.70;3.12;;;;;;;;;;4346626;32;20065;-70
2022/05/12 08:58:15;;;;;;;3.58;2.10;;;;;;;;;;4347299;33;20071;-71
2022/05/12 09:00:51;;;;;;;6.70;2.25;;;;;;;;;;4348082;33;20057;-75
2022/05/12 09:03:17;;;;;;;8.63;2.30;;;;;;;;;;4361404;32;20019;-71
2022/05/12 09:06:03;;;;;;;10.23;1.85;;;;;;;;;;4361865;32;20098;-75
2022/05/12 09:08:46;;;;;;;8.02;2.67;;;;;;;;;;4360425;32;20028;-72
2022/05/12 09:11:17;;;;;;;5.57;2.15;;;;;;;;;;4360575;32;20032;-76
2022/05/12 09:13:48;;;;;;;8.05;1.90;;;;;;;;;;4347216;33;20059;-74
2022/05/12 09:16:16;;;;;;;5.82;2.25;;;;;;;;;;4361523;32;20062;-73
2022/05/12 09:18:42;;;;;;;7.25;1.83;;;;;;;;;;4361800;32;20065;-69
2022/05/12 09:21:09;;;;;;;4.65;2.00;;;;;;;;;;4359967;32;20418;-70
2022/05/12 09:23:35;;;;;;;6.03;2.20;;;;;;;;;;4347047;33;20024;-71
2022/05/12 09:26:20;;;;;;;5.40;2.35;;;;;;;;;;4359735;32;20504;-70
2022/05/12 09:28:45;;;;;;;7.00;2.80;;;;;;;;;;4360266;32;20019;-69
2022/05/12 09:31:17;;;;;;;5.93;2.72;;;;;;;;;;4358299;32;20073;-75
2022/05/12 09:33:43;;;;;;;5.57;2.42;;;;;;;;;;4361779;32;20098;-74
2022/05/12 09:36:13;;;;;;;7.95;2.28;;;;;;;;;;4359939;32;20097;-73
2022/05/12 09:38:40;;;;;;;9.98;1.75;;;;;;;;;;4359884;32;20023;-73
2022/05/12 09:41:16;;;;;;;4.78;1.70;;;;;;;;;;4359552;32;20082;-70
2022/05/12 09:43:42;;;;;;;10.98;1.83;;;;;;;;;;4360708;32;20043;-68
2022/05/12 09:46:20;;;;;;;11.57;2.40;;;;;;;;;;4359252;33;20026;-69
2022/05/12 09:48:47;;;;;;;6.35;1.70;;;;;;;;;;4361008;32;20484;-71
2022/05/12 09:51:21;;;;;;;8.93;2.45;;;;;;;;;;4359679;32;20121;-72
2022/05/12 09:53:47;;;;;;;8.65;2.10;;;;;;;;;;4361118;33;20413;-71
2022/05/12 09:56:31;;;;;;;9.82;2.60;;;;;;;;;;4359690;33;20081;-72
2022/05/12 09:59:17;;;;;;;5.45;2.25;;;;;;;;;;4348168;33;20378;-71
2022/05/12 10:01:54;;;;;;;9.13;2.55;;;;;;;;;;4353877;33;20097;-71
2022/05/12 10:10:04;;;;;;;7.37;2.53;;;;;;;;;;4361600;33;20369;-69
2022/05/12 10:12:35;;;;;;;7.45;2.25;;;;;;;;;;4347169;33;20111;-75
2022/05/12 10:15:03;;;;;;;7.60;2.45;;;;;;;;;;4359554;33;20028;-71
2022/05/12 10:17:40;;;;;;;7.78;2.17;;;;;;;;;;4360135;33;20027;-72
2022/05/12 10:20:08;;;;;;;6.72;1.80;;;;;;;;;;4360208;33;20058;-75
2022/05/12 10:22:39;;;;;;;7.70;2.17;;;;;;;;;;4361083;33;20031;-70
2022/05/12 10:25:19;;;;;;;7.90;2.03;;;;;;;;;;4359428;33;20077;-75
2022/05/12 10:28:08;;;;;;;8.60;1.90;;;;;;;;;;4360785;33;20051;-72
2022/05/12 10:30:39;;;;;;;5.35;1.67;;;;;;;;;;4355607;33;20063;-72
2022/05/12 10:33:17;;;;;;;6.03;1.77;;;;;;;;;;4360063;33;20057;-71
2022/05/12 10:36:01;;;;;;;4.18;1.55;;;;;;;;;;4360574;33;20052;-70
2022/05/12 10:38:35;;;;;;;6.95;1.87;;;;;;;;;;4359162;33;20065;-74
2022/05/12 10:41:09;;;;;;;4.45;1.50;;;;;;;;;;4360122;33;20047;-75
2022/05/12 10:43:45;;;;;;;6.55;1.65;;;;;;;;;;4343180;33;20074;-73
2022/05/12 10:46:19;;;;;;;5.45;2.00;;;;;;;;;;4359850;33;20110;-70
2022/05/12 10:48:54;;;;;;;9.43;2.50;;;;;;;;;;4358434;33;20027;-72
2022/05/12 10:51:26;;;;;;;3.40;1.58;;;;;;;;;;4359710;33;20023;-70
2022/05/12 10:54:03;;;;;;;3.55;1.50;;;;;;;;;;4362418;32;20098;-71
2022/05/12 10:56:33;;;;;;;6.25;1.87;;;;;;;;;;4364008;32;20069;-72
2022/05/12 10:59:16;;;;;;;7.43;2.75;;;;;;;;;;4361773;33;20082;-74
2022/05/12 11:02:00;;;;;;;8.50;2.17;;;;;;;;;;4362196;32;20135;-74
2022/05/12 11:04:28;;;;;;;6.93;1.85;;;;;;;;;;4360325;32;20361;-72
2022/05/12 11:07:08;;;;;;;5.65;2.05;;;;;;;;;;4363329;32;20118;-72
2022/05/12 11:09:39;;;;;;;4.35;1.65;;;;;;;;;;4362024;32;20058;-71
2022/05/12 11:12:34;;;;;;;6.35;1.80;;;;;;;;;;4361411;33;20027;-73
2022/05/12 11:15:06;;;;;;;6.32;1.87;;;;;;;;;;4355051;33;20053;-68
2022/05/12 11:17:39;;;;;;;5.75;1.73;;;;;;;;;;4362741;32;20023;-71
2022/05/12 11:20:16;;;;;;;5.00;1.50;;;;;;;;;;4362315;32;20031;-71
2022/05/12 11:22:45;;;;;;;4.85;1.60;;;;;;;;;;4363018;32;20078;-71
2022/05/12 11:25:19;;;;;;;4.87;1.62;;;;;;;;;;4361681;32;20058;-70
2022/05/12 11:27:53;;;;;;;4.07;1.30;;;;;;;;;;4361861;32;20101;-70
2022/05/12 11:30:30;;;;;;;3.35;1.52;;;;;;;;;;4362170;32;20396;-72
2022/05/12 11:33:05;;;;;;;4.03;1.55;;;;;;;;;;4348823;33;20340;-72
2022/05/12 11:35:37;;;;;;;4.43;2.05;;;;;;;;;;4363397;32;20023;-70
2022/05/12 11:38:05;;;;;;;6.65;1.80;;;;;;;;;;4361331;32;20059;-68
2022/05/12 11:40:40;;;;;;;3.58;1.87;;;;;;;;;;4361424;32;20070;-69
2022/05/12 11:46:11;;;;;;;4.95;1.80;;;;;;;;;;4360909;32;20069;-70
2022/05/12 11:48:43;;;;;;;5.37;1.65;;;;;;;;;;4362479;32;20028;-73
2022/05/12 11:51:26;;;;;;;4.78;2.00;;;;;;;;;;4362901;32;20024;-70
2022/05/12 11:53:55;;;;;;;3.78;1.70;;;;;;;;;;4362322;32;20417;-71
2022/05/12 11:56:37;;;;;;;2.85;1.20;;;;;;;;;;4360049;33;20039;-72
2022/05/12 11:59:33;;;;;;;6.22;1.75;;;;;;;;;;4361948;32;20129;-74
2022/05/12 12:02:08;;;;;;;3.10;1.30;;;;;;;;;;4354482;33;20039;-70
2022/05/12 12:04:36;;;;;;;4.73;1.57;;;;;;;;;;4362526;32;20439;-73
2022/05/12 12:07:02;;;;;;;4.85;1.10;;;;;;;;;;4361431;32;20023;-71
2022/05/12 12:09:30;;;;;;;4.28;1.60;;;;;;;;;;4360644;32;20077;-73
2022/05/12 12:11:55;;;;;;;5.90;1.50;;;;;;;;;;4361715;32;20406;-71
2022/05/12 12:14:39;;;;;;;3.85;1.27;;;;;;;;;;4360579;32;20049;-70
2022/05/12 12:17:07;;;;;;;6.00;2.05;;;;;;;;;;4361749;32;20023;-73
2022/05/12 12:19:49;;;;;;;2.20;1.40;;;;;;;;;;4360439;32;20051;-74
2022/05/12 12:22:14;;;;;;;3.12;1.50;;;;;;;;;;4347330;33;20062;-70
2022/05/12 12:24:43;;;;;;;4.40;1.93;;;;;;;;;;4348642;32;20099;-70
2022/05/12 12:27:28;;;;;;;4.05;2.03;;;;;;;;;;4347355;33;20128;-70
2022/05/12 12:29:54;;;;;;;5.72;1.70;;;;;;;;;;4360564;32;20035;-71
2022/05/12 12:32:29;;;;;;;3.28;1.37;;;;;;;;;;4361189;32;20448;-70
2022/05/12 12:34:56;;;;;;;4.35;1.50;;;;;;;;;;4361072;32;20043;-71
2022/05/12 12:37:42;;;;;;;3.00;1.60;;;;;;;;;;4360848;32;20444;-72
2022/05/12 12:40:26;;;;;;;4.27;1.70;;;;;;;;;;4360454;32;20385;-71
2022/05/12 12:42:52;;;;;;;4.78;2.05;;;;;;;;;;4360755;32;20031;-70
2022/05/12 12:45:19;;;;;;;6.25;1.62;;;;;;;;;;4358884;33;20493;-70
2022/05/12 12:47:59;;;;;;;8.77;2.25;;;;;;;;;;4360838;32;20031;-69
2022/05/12 12:50:43;;;;;;;4.62;1.77;;;;;;;;;;4361024;32;20023;-70
2022/05/12 12:53:13;;;;;;;4.03;1.48;;;;;;;;;;4360446;32;20073;-72
2022/05/12 12:58:30;;;;;;;4.57;1.62;;;;;;;;;;4360970;32;20073;-68
2022/05/12 13:00:59;;;;;;;3.90;1.77;;;;;;;;;;4360177;32;20356;-69
2022/05/12 13:03:27;;;;;;;5.80;1.60;;;;;;;;;;4360117;32;20151;-71
2022/05/12 13:06:05;;;;;;;6.47;1.85;;;;;;;;;;4360716;32;20053;-72
2022/05/12 13:08:31;;;;;;;4.10;1.83;;;;;;;;;;4360603;32;20046;-69
2022/05/12 13:10:58;;;;;;;5.97;1.87;;;;;;;;;;4361562;32;20353;-70
2022/05/12 13:13:24;;;;;;;5.07;2.08;;;;;;;;;;4361391;32;20074;-74
2022/05/12 13:15:54;;;;;;;4.65;1.60;;;;;;;;;;4346701;33;20039;-73
2022/05/12 13:18:23;;;;;;;3.37;1.73;;;;;;;;;;4360640;32;20031;-73
2022/05/12 13:20:49;;;;;;;8.27;2.33;;;;;;;;;;4360209;32;20361;-70
2022/05/12 13:23:19;;;;;;;7.40;1.92;;;;;;;;;;4360989;32;20027;-71
2022/05/12 13:25:44;;;;;;;3.60;1.60;;;;;;;;;;4360607;32;20080;-69
2022/05/12 13:28:15;;;;;;;6.57;1.73;;;;;;;;;;4359426;32;20035;-70
2022/05/12 13:30:43;;;;;;;7.70;1.85;;;;;;;;;;4361472;32;20031;-71
2022/05/12 13:33:28;;;;;;;7.45;2.12;;;;;;;;;;4358786;32;20039;-71
2022/05/12 13:35:58;;;;;;;6.82;2.00;;;;;;;;;;4361143;32;20031;-70
2022/05/12 13:38:27;;;;;;;5.03;1.33;;;;;;;;;;4360829;32;20059;-70
2022/05/12 13:40:52;;;;;;;6.47;1.45;;;;;;;;;;4359811;32;20085;-72
2022/05/12 13:43:31;;;;;;;3.83;1.52;;;;;;;;;;4359724;33;20031;-73
2022/05/12 13:46:20;;;;;;;4.95;1.75;;;;;;;;;;4361558;32;20146;-73
2022/05/12 13:48:59;;;;;;;4.90;2.03;;;;;;;;;;4355224;33;20036;-71
2022/05/12 13:51:43;;;;;;;5.40;1.85;;;;;;;;;;4359832;33;20342;-71
2022/05/12 13:54:08;;;;;;;5.68;2.50;;;;;;;;;;4360023;33;20062;-70
2022/05/12 13:56:38;;;;;;;7.40;2.33;;;;;;;;;;4359712;33;20098;-70
2022/05/12 13:59:21;;;;;;;4.62;1.80;;;;;;;;;;4347501;33;20186;-73
2022/05/12 14:01:47;;;;;;;4.85;1.62;;;;;;;;;;4360228;33;20094;-75
2022/05/12 14:04:14;;;;;;;2.70;1.65;;;;;;;;;;4360059;33;20053;-74
2022/05/12 14:06:43;;;;;;;5.43;1.85;;;;;;;;;;4360669;33;20409;-71
2022/05/12 14:09:13;;;;;;;7.50;2.45;;;;;;;;;;4359752;33;20023;-73
2022/05/12 14:11:38;;;;;;;8.05;2.22;;;;;;;;;;4359968;33;20070;-71
2022/05/12 14:19:38;;;;;;;6.47;1.73;;;;;;;;;;4360910;33;20404;-70
2022/05/12 14:22:06;;;;;;;5.07;1.70;;;;;;;;;;4360263;33;20062;-72
2022/05/12 14:24:32;;;;;;;6.07;1.70;;;;;;;;;;4359196;33;20061;-70
2022/05/12 14:26:57;;;;;;;4.60;1.37;;;;;;;;;;4346804;33;20035;-70
2022/05/12 14:29:23;;;;;;;6.90;1.85;;;;;;;;;;4362667;33;20377;-72
2022/05/12 14:31:50;;;;;;;2.75;1.90;;;;;;;;;;4362439;32;20023;-72
2022/05/12 14:34:18;;;;;;;4.00;1.52;;;;;;;;;;4362319;32;20023;-69
2022/05/12 14:36:43;;;;;;;4.40;1.40;;;;;;;;;;4364249;32;20491;-71
2022/05/12 14:39:08;;;;;;;4.57;1.53;;;;;;;;;;4361821;33;20039;-73
2022/05/12 14:41:34;;;;;;;7.13;1.70;;;;;;;;;;4348914;33;20136;-72
2022/05/12 14:43:59;;;;;;;4.30;1.33;;;;;;;;;;4363061;32;20526;-71
2022/05/12 14:46:27;;;;;;;3.37;1.40;;;;;;;;;;4363504;32;20032;-72
2022/05/12 14:48:52;;;;;;;5.50;3.25;;;;;;;;;;4362419;32;20023;-70
2022/05/12 14:51:18;;;;;;;5.45;1.87;;;;;;;;;;4362392;32;20090;-69
2022/05/12 14:53:44;;;;;;;7.47;1.62;;;;;;;;;;4362328;33;20019;-70
2022/05/12 14:56:09;;;;;;;4.55;1.70;;;;;;;;;;4363829;32;20114;-70
2022/05/12 14:58:34;;;;;;;5.75;2.05;;;;;;;;;;4362708;32;20027;-71
2022/05/12 15:01:00;;;;;;;3.95;1.33;;;;;;;;;;4362487;32;20035;-74
2022/05/12 15:03:26;;;;;;;3.80;1.75;;;;;;;;;;4348501;33;20031;-68
2022/05/12 15:05:51;;;;;;;4.68;1.90;;;;;;;;;;4360483;32;20032;-71
2022/05/12 15:08:16;;;;;;;4.83;2.00;;;;;;;;;;4362077;32;20031;-69
2022/05/12 15:10:42;;;;;;;7.77;1.80;;;;;;;;;;4362095;32;20146;-73
2022/05/12 15:13:07;;;;;;;8.18;2.60;;;;;;;;;;4362565;32;20423;-73
2022/05/12 15:15:32;;;;;;;5.90;1.90;;;;;;;;;;4362992;32;20449;-72
2022/05/12 15:17:58;;;;;;;3.97;2.23;;;;;;;;;;4361871;32;20127;-71
2022/05/12 15:20:24;;;;;;;7.07;2.40;;;;;;;;;;4362544;32;20197;-73
2022/05/12 15:22:49;;;;;;;5.78;1.90;;;;;;;;;;4349197;33;20043;-69
2022/05/12 15:25:15;;;;;;;4.97;2.05;;;;;;;;;;4362503;32;20028;-69
2022/05/12 15:27:41;;;;;;;4.93;1.83;;;;;;;;;;4362551;32;20414;-69
2022/05/12 15:30:08;;;;;;;4.68;1.83;;;;;;;;;;4362350;32;20078;-72